sensor_id;sensor_type;location;lat;lon;timestamp;P1;durP1;ratioP1;P2;durP2;ratioP2
66669;SDS011;53568;52.164;4.472;2023-09-08T00:00:55;15.67;;;15.67;;
66669;SDS011;53568;52.164;4.472;2023-09-08T00:03:21;15.88;;;15.88;;
66669;SDS011;53568;52.164;4.472;2023-09-08T00:05:47;16.02;;;16.02;;
66669;SDS011;53568;52.164;4.472;2023-09-08T00:08:12;15.48;;;15.48;;
66669;SDS011;53568;52.164;4.472;2023-09-08T00:10:38;16.22;;;16.22;;
66669;SDS011;53568;52.164;4.472;2023-09-08T00:13:04;15.79;;;15.79;;
66669;SDS011;53568;52.164;4.472;2023-09-08T00:15:30;16.82;;;16.82;;
66669;SDS011;53568;52.164;4.472;2023-09-08T00:17:58;15.88;;;15.88;;
66669;SDS011;53568;52.164;4.472;2023-09-08T00:20:24;16.23;;;16.23;;
66669;SDS011;53568;52.164;4.472;2023-09-08T00:22:49;16.40;;;16.40;;
66669;SDS011;53568;52.164;4.472;2023-09-08T00:25:15;16.15;;;16.14;;
66669;SDS011;53568;52.164;4.472;2023-09-08T00:27:41;16.59;;;16.59;;
66669;SDS011;53568;52.164;4.472;2023-09-08T00:30:06;16.17;;;16.17;;
66669;SDS011;53568;52.164;4.472;2023-09-08T00:32:32;16.59;;;16.59;;
66669;SDS011;53568;52.164;4.472;2023-09-08T00:34:58;16.75;;;16.75;;
66669;SDS011;53568;52.164;4.472;2023-09-08T00:37:23;17.08;;;17.08;;
66669;SDS011;53568;52.164;4.472;2023-09-08T00:39:49;16.97;;;16.97;;
66669;SDS011;53568;52.164;4.472;2023-09-08T00:42:14;16.87;;;16.87;;
66669;SDS011;53568;52.164;4.472;2023-09-08T00:44:40;17.15;;;17.15;;
66669;SDS011;53568;52.164;4.472;2023-09-08T00:47:05;17.66;;;17.66;;
66669;SDS011;53568;52.164;4.472;2023-09-08T00:49:31;17.43;;;17.43;;
66669;SDS011;53568;52.164;4.472;2023-09-08T00:51:57;17.53;;;17.53;;
66669;SDS011;53568;52.164;4.472;2023-09-08T00:54:23;17.79;;;17.79;;
66669;SDS011;53568;52.164;4.472;2023-09-08T00:56:51;17.30;;;17.30;;
66669;SDS011;53568;52.164;4.472;2023-09-08T00:59:20;17.31;;;17.31;;
66669;SDS011;53568;52.164;4.472;2023-09-08T01:01:45;18.13;;;18.13;;
66669;SDS011;53568;52.164;4.472;2023-09-08T01:04:11;17.72;;;17.72;;
66669;SDS011;53568;52.164;4.472;2023-09-08T01:06:37;18.30;;;18.28;;
66669;SDS011;53568;52.164;4.472;2023-09-08T01:09:04;18.03;;;18.03;;
66669;SDS011;53568;52.164;4.472;2023-09-08T01:11:30;17.88;;;17.88;;
66669;SDS011;53568;52.164;4.472;2023-09-08T01:13:57;18.93;;;18.93;;
66669;SDS011;53568;52.164;4.472;2023-09-08T01:16:22;19.00;;;19.00;;
66669;SDS011;53568;52.164;4.472;2023-09-08T01:18:48;18.63;;;18.63;;
66669;SDS011;53568;52.164;4.472;2023-09-08T01:24:08;17.76;;;17.76;;
66669;SDS011;53568;52.164;4.472;2023-09-08T01:26:46;17.38;;;17.38;;
66669;SDS011;53568;52.164;4.472;2023-09-08T01:29:13;17.41;;;17.41;;
66669;SDS011;53568;52.164;4.472;2023-09-08T01:31:42;17.81;;;17.81;;
66669;SDS011;53568;52.164;4.472;2023-09-08T01:34:07;18.59;;;18.59;;
66669;SDS011;53568;52.164;4.472;2023-09-08T01:36:34;18.58;;;18.58;;
66669;SDS011;53568;52.164;4.472;2023-09-08T01:39:03;18.29;;;18.29;;
66669;SDS011;53568;52.164;4.472;2023-09-08T01:41:29;18.44;;;18.44;;
66669;SDS011;53568;52.164;4.472;2023-09-08T01:43:56;19.05;;;19.05;;
66669;SDS011;53568;52.164;4.472;2023-09-08T01:46:23;20.05;;;20.05;;
66669;SDS011;53568;52.164;4.472;2023-09-08T01:48:48;19.84;;;19.84;;
66669;SDS011;53568;52.164;4.472;2023-09-08T01:51:13;20.25;;;20.25;;
66669;SDS011;53568;52.164;4.472;2023-09-08T01:53:39;20.63;;;20.63;;
66669;SDS011;53568;52.164;4.472;2023-09-08T01:56:04;20.27;;;20.27;;
66669;SDS011;53568;52.164;4.472;2023-09-08T01:58:30;21.37;;;21.37;;
66669;SDS011;53568;52.164;4.472;2023-09-08T02:00:57;21.26;;;21.25;;
66669;SDS011;53568;52.164;4.472;2023-09-08T02:03:27;20.70;;;20.70;;
66669;SDS011;53568;52.164;4.472;2023-09-08T02:05:52;20.82;;;20.82;;
66669;SDS011;53568;52.164;4.472;2023-09-08T02:08:18;20.70;;;20.70;;
66669;SDS011;53568;52.164;4.472;2023-09-08T02:10:44;20.33;;;20.33;;
66669;SDS011;53568;52.164;4.472;2023-09-08T02:13:09;19.61;;;19.61;;
66669;SDS011;53568;52.164;4.472;2023-09-08T02:15:35;20.44;;;20.44;;
66669;SDS011;53568;52.164;4.472;2023-09-08T02:18:01;20.69;;;20.65;;
66669;SDS011;53568;52.164;4.472;2023-09-08T02:20:27;20.85;;;20.85;;
66669;SDS011;53568;52.164;4.472;2023-09-08T02:22:53;21.68;;;21.68;;
66669;SDS011;53568;52.164;4.472;2023-09-08T02:25:20;21.85;;;21.85;;
66669;SDS011;53568;52.164;4.472;2023-09-08T02:27:48;21.81;;;21.81;;
66669;SDS011;53568;52.164;4.472;2023-09-08T02:30:13;22.00;;;21.97;;
66669;SDS011;53568;52.164;4.472;2023-09-08T02:32:39;22.46;;;22.46;;
66669;SDS011;53568;52.164;4.472;2023-09-08T02:35:08;22.53;;;22.53;;
66669;SDS011;53568;52.164;4.472;2023-09-08T02:37:33;23.13;;;23.13;;
66669;SDS011;53568;52.164;4.472;2023-09-08T02:39:59;22.70;;;22.70;;
66669;SDS011;53568;52.164;4.472;2023-09-08T02:42:25;23.50;;;23.50;;
66669;SDS011;53568;52.164;4.472;2023-09-08T02:44:50;22.86;;;22.86;;
66669;SDS011;53568;52.164;4.472;2023-09-08T02:47:17;22.08;;;22.08;;
66669;SDS011;53568;52.164;4.472;2023-09-08T02:49:42;22.42;;;22.42;;
66669;SDS011;53568;52.164;4.472;2023-09-08T02:52:08;22.46;;;22.46;;
66669;SDS011;53568;52.164;4.472;2023-09-08T02:54:34;22.66;;;22.66;;
66669;SDS011;53568;52.164;4.472;2023-09-08T02:57:01;23.24;;;23.12;;
66669;SDS011;53568;52.164;4.472;2023-09-08T02:59:26;22.30;;;22.30;;
66669;SDS011;53568;52.164;4.472;2023-09-08T03:01:52;22.62;;;22.62;;
66669;SDS011;53568;52.164;4.472;2023-09-08T03:04:17;22.16;;;22.16;;
66669;SDS011;53568;52.164;4.472;2023-09-08T03:06:43;23.24;;;23.24;;
66669;SDS011;53568;52.164;4.472;2023-09-08T03:09:08;23.14;;;23.02;;
66669;SDS011;53568;52.164;4.472;2023-09-08T03:11:34;22.59;;;22.59;;
66669;SDS011;53568;52.164;4.472;2023-09-08T03:13:59;23.46;;;23.42;;
66669;SDS011;53568;52.164;4.472;2023-09-08T03:16:25;23.22;;;23.22;;
66669;SDS011;53568;52.164;4.472;2023-09-08T03:18:51;22.95;;;22.91;;
66669;SDS011;53568;52.164;4.472;2023-09-08T03:21:16;22.98;;;22.97;;
66669;SDS011;53568;52.164;4.472;2023-09-08T03:23:42;22.27;;;22.27;;
66669;SDS011;53568;52.164;4.472;2023-09-08T03:26:09;23.11;;;22.99;;
66669;SDS011;53568;52.164;4.472;2023-09-08T03:28:36;22.56;;;22.53;;
66669;SDS011;53568;52.164;4.472;2023-09-08T03:31:04;22.22;;;22.22;;
66669;SDS011;53568;52.164;4.472;2023-09-08T03:33:30;23.09;;;23.09;;
66669;SDS011;53568;52.164;4.472;2023-09-08T03:35:56;22.96;;;22.96;;
66669;SDS011;53568;52.164;4.472;2023-09-08T03:38:21;23.35;;;23.35;;
66669;SDS011;53568;52.164;4.472;2023-09-08T03:40:47;23.14;;;23.14;;
66669;SDS011;53568;52.164;4.472;2023-09-08T03:43:13;22.86;;;22.84;;
66669;SDS011;53568;52.164;4.472;2023-09-08T03:45:39;23.20;;;23.20;;
66669;SDS011;53568;52.164;4.472;2023-09-08T03:48:05;23.05;;;23.04;;
66669;SDS011;53568;52.164;4.472;2023-09-08T03:50:30;22.33;;;22.33;;
66669;SDS011;53568;52.164;4.472;2023-09-08T03:52:56;22.08;;;22.08;;
66669;SDS011;53568;52.164;4.472;2023-09-08T03:55:22;22.88;;;22.88;;
66669;SDS011;53568;52.164;4.472;2023-09-08T03:57:47;22.82;;;22.82;;
66669;SDS011;53568;52.164;4.472;2023-09-08T04:00:13;23.07;;;23.07;;
66669;SDS011;53568;52.164;4.472;2023-09-08T04:02:47;22.92;;;22.92;;
66669;SDS011;53568;52.164;4.472;2023-09-08T04:05:16;22.82;;;22.82;;
66669;SDS011;53568;52.164;4.472;2023-09-08T04:07:43;23.77;;;23.74;;
66669;SDS011;53568;52.164;4.472;2023-09-08T04:10:10;23.15;;;23.15;;
66669;SDS011;53568;52.164;4.472;2023-09-08T04:12:36;23.26;;;23.26;;
66669;SDS011;53568;52.164;4.472;2023-09-08T04:15:01;23.74;;;23.68;;
66669;SDS011;53568;52.164;4.472;2023-09-08T04:17:27;23.37;;;23.37;;
66669;SDS011;53568;52.164;4.472;2023-09-08T04:19:54;24.27;;;24.26;;
66669;SDS011;53568;52.164;4.472;2023-09-08T04:22:19;24.16;;;24.16;;
66669;SDS011;53568;52.164;4.472;2023-09-08T04:24:45;23.29;;;23.29;;
66669;SDS011;53568;52.164;4.472;2023-09-08T04:27:10;22.74;;;22.64;;
66669;SDS011;53568;52.164;4.472;2023-09-08T04:29:36;23.19;;;23.19;;
66669;SDS011;53568;52.164;4.472;2023-09-08T04:32:01;23.02;;;23.02;;
66669;SDS011;53568;52.164;4.472;2023-09-08T04:34:40;23.67;;;23.64;;
66669;SDS011;53568;52.164;4.472;2023-09-08T04:37:07;23.19;;;23.19;;
66669;SDS011;53568;52.164;4.472;2023-09-08T04:39:34;23.15;;;23.15;;
66669;SDS011;53568;52.164;4.472;2023-09-08T04:42:00;23.33;;;23.28;;
66669;SDS011;53568;52.164;4.472;2023-09-08T04:44:26;23.85;;;23.82;;
66669;SDS011;53568;52.164;4.472;2023-09-08T04:46:52;22.31;;;22.31;;
66669;SDS011;53568;52.164;4.472;2023-09-08T04:49:18;22.69;;;22.69;;
66669;SDS011;53568;52.164;4.472;2023-09-08T04:51:44;22.74;;;22.73;;
66669;SDS011;53568;52.164;4.472;2023-09-08T04:54:10;23.34;;;23.34;;
66669;SDS011;53568;52.164;4.472;2023-09-08T04:56:35;22.80;;;22.80;;
66669;SDS011;53568;52.164;4.472;2023-09-08T04:59:01;23.45;;;23.44;;
66669;SDS011;53568;52.164;4.472;2023-09-08T05:01:27;24.24;;;24.24;;
66669;SDS011;53568;52.164;4.472;2023-09-08T05:03:55;26.01;;;26.01;;
66669;SDS011;53568;52.164;4.472;2023-09-08T05:06:20;25.45;;;25.43;;
66669;SDS011;53568;52.164;4.472;2023-09-08T05:08:46;25.31;;;25.28;;
66669;SDS011;53568;52.164;4.472;2023-09-08T05:11:11;24.53;;;24.52;;
66669;SDS011;53568;52.164;4.472;2023-09-08T05:13:37;24.80;;;24.80;;
66669;SDS011;53568;52.164;4.472;2023-09-08T05:16:02;23.80;;;23.80;;
66669;SDS011;53568;52.164;4.472;2023-09-08T05:18:36;25.02;;;25.00;;
66669;SDS011;53568;52.164;4.472;2023-09-08T05:21:03;25.19;;;25.10;;
66669;SDS011;53568;52.164;4.472;2023-09-08T05:23:29;25.06;;;25.06;;
66669;SDS011;53568;52.164;4.472;2023-09-08T05:25:55;25.97;;;25.97;;
66669;SDS011;53568;52.164;4.472;2023-09-08T05:28:20;25.38;;;25.38;;
66669;SDS011;53568;52.164;4.472;2023-09-08T05:30:46;25.73;;;25.55;;
66669;SDS011;53568;52.164;4.472;2023-09-08T05:33:12;25.31;;;25.30;;
66669;SDS011;53568;52.164;4.472;2023-09-08T05:35:37;25.95;;;25.93;;
66669;SDS011;53568;52.164;4.472;2023-09-08T05:38:03;24.85;;;24.84;;
66669;SDS011;53568;52.164;4.472;2023-09-08T05:40:28;24.23;;;24.23;;
66669;SDS011;53568;52.164;4.472;2023-09-08T05:42:54;24.73;;;24.65;;
66669;SDS011;53568;52.164;4.472;2023-09-08T05:45:19;26.18;;;26.01;;
66669;SDS011;53568;52.164;4.472;2023-09-08T05:47:45;25.06;;;25.06;;
66669;SDS011;53568;52.164;4.472;2023-09-08T05:50:11;25.55;;;25.55;;
66669;SDS011;53568;52.164;4.472;2023-09-08T05:52:36;25.30;;;25.28;;
66669;SDS011;53568;52.164;4.472;2023-09-08T05:55:02;24.48;;;24.48;;
66669;SDS011;53568;52.164;4.472;2023-09-08T05:57:27;23.88;;;23.86;;
66669;SDS011;53568;52.164;4.472;2023-09-08T05:59:53;24.57;;;24.57;;
66669;SDS011;53568;52.164;4.472;2023-09-08T06:02:18;25.00;;;24.98;;
66669;SDS011;53568;52.164;4.472;2023-09-08T06:04:44;25.51;;;25.51;;
66669;SDS011;53568;52.164;4.472;2023-09-08T06:07:09;25.23;;;25.16;;
66669;SDS011;53568;52.164;4.472;2023-09-08T06:09:35;24.56;;;24.56;;
66669;SDS011;53568;52.164;4.472;2023-09-08T06:12:01;25.25;;;25.21;;
66669;SDS011;53568;52.164;4.472;2023-09-08T06:14:26;25.38;;;25.38;;
66669;SDS011;53568;52.164;4.472;2023-09-08T06:16:52;24.96;;;24.96;;
66669;SDS011;53568;52.164;4.472;2023-09-08T06:19:19;25.40;;;25.40;;
66669;SDS011;53568;52.164;4.472;2023-09-08T06:21:45;25.11;;;25.04;;
66669;SDS011;53568;52.164;4.472;2023-09-08T06:24:10;25.28;;;25.28;;
66669;SDS011;53568;52.164;4.472;2023-09-08T06:26:36;24.60;;;24.60;;
66669;SDS011;53568;52.164;4.472;2023-09-08T06:29:02;24.43;;;24.42;;
66669;SDS011;53568;52.164;4.472;2023-09-08T06:31:28;25.07;;;25.07;;
66669;SDS011;53568;52.164;4.472;2023-09-08T06:33:53;24.84;;;24.84;;
66669;SDS011;53568;52.164;4.472;2023-09-08T06:36:19;26.15;;;26.10;;
66669;SDS011;53568;52.164;4.472;2023-09-08T06:38:44;25.02;;;25.01;;
66669;SDS011;53568;52.164;4.472;2023-09-08T06:41:10;25.59;;;25.58;;
66669;SDS011;53568;52.164;4.472;2023-09-08T06:43:36;25.91;;;25.85;;
66669;SDS011;53568;52.164;4.472;2023-09-08T06:46:02;26.48;;;26.37;;
66669;SDS011;53568;52.164;4.472;2023-09-08T06:48:28;25.96;;;25.96;;
66669;SDS011;53568;52.164;4.472;2023-09-08T06:50:54;25.40;;;25.40;;
66669;SDS011;53568;52.164;4.472;2023-09-08T06:53:22;25.43;;;25.43;;
66669;SDS011;53568;52.164;4.472;2023-09-08T06:55:48;25.78;;;25.78;;
66669;SDS011;53568;52.164;4.472;2023-09-08T06:58:14;26.17;;;26.15;;
66669;SDS011;53568;52.164;4.472;2023-09-08T07:00:42;26.82;;;26.80;;
66669;SDS011;53568;52.164;4.472;2023-09-08T07:03:08;26.38;;;26.36;;
66669;SDS011;53568;52.164;4.472;2023-09-08T07:05:38;25.95;;;25.95;;
66669;SDS011;53568;52.164;4.472;2023-09-08T07:08:04;25.89;;;25.88;;
66669;SDS011;53568;52.164;4.472;2023-09-08T07:10:31;26.41;;;26.41;;
66669;SDS011;53568;52.164;4.472;2023-09-08T07:12:57;26.48;;;26.47;;
66669;SDS011;53568;52.164;4.472;2023-09-08T07:15:23;26.23;;;26.23;;
66669;SDS011;53568;52.164;4.472;2023-09-08T07:17:48;26.38;;;26.34;;
66669;SDS011;53568;52.164;4.472;2023-09-08T07:20:14;26.68;;;26.65;;
66669;SDS011;53568;52.164;4.472;2023-09-08T07:22:39;26.83;;;26.83;;
66669;SDS011;53568;52.164;4.472;2023-09-08T07:25:05;26.58;;;26.57;;
66669;SDS011;53568;52.164;4.472;2023-09-08T07:27:31;26.85;;;26.85;;
66669;SDS011;53568;52.164;4.472;2023-09-08T07:29:57;27.89;;;27.87;;
66669;SDS011;53568;52.164;4.472;2023-09-08T07:32:22;27.11;;;27.11;;
66669;SDS011;53568;52.164;4.472;2023-09-08T07:34:50;27.08;;;27.02;;
66669;SDS011;53568;52.164;4.472;2023-09-08T07:37:23;27.00;;;27.00;;
66669;SDS011;53568;52.164;4.472;2023-09-08T07:39:50;27.12;;;27.12;;
66669;SDS011;53568;52.164;4.472;2023-09-08T07:42:16;27.49;;;27.49;;
66669;SDS011;53568;52.164;4.472;2023-09-08T07:44:42;28.82;;;28.81;;
66669;SDS011;53568;52.164;4.472;2023-09-08T07:47:07;27.87;;;27.85;;
66669;SDS011;53568;52.164;4.472;2023-09-08T07:49:33;28.05;;;28.05;;
66669;SDS011;53568;52.164;4.472;2023-09-08T07:51:59;28.81;;;28.81;;
66669;SDS011;53568;52.164;4.472;2023-09-08T07:54:25;28.07;;;28.06;;
66669;SDS011;53568;52.164;4.472;2023-09-08T07:56:50;28.50;;;28.50;;
66669;SDS011;53568;52.164;4.472;2023-09-08T07:59:16;28.51;;;28.48;;
66669;SDS011;53568;52.164;4.472;2023-09-08T08:01:42;28.36;;;28.36;;
66669;SDS011;53568;52.164;4.472;2023-09-08T08:04:08;30.07;;;30.07;;
66669;SDS011;53568;52.164;4.472;2023-09-08T08:06:33;29.40;;;29.39;;
66669;SDS011;53568;52.164;4.472;2023-09-08T08:08:59;30.30;;;30.28;;
66669;SDS011;53568;52.164;4.472;2023-09-08T08:11:24;30.68;;;30.65;;
66669;SDS011;53568;52.164;4.472;2023-09-08T08:13:50;30.02;;;30.02;;
66669;SDS011;53568;52.164;4.472;2023-09-08T08:16:16;30.34;;;30.17;;
66669;SDS011;53568;52.164;4.472;2023-09-08T08:18:41;29.88;;;29.87;;
66669;SDS011;53568;52.164;4.472;2023-09-08T08:21:07;30.75;;;30.72;;
66669;SDS011;53568;52.164;4.472;2023-09-08T08:23:33;30.57;;;30.57;;
66669;SDS011;53568;52.164;4.472;2023-09-08T08:25:59;31.33;;;31.33;;
66669;SDS011;53568;52.164;4.472;2023-09-08T08:28:25;30.79;;;30.77;;
66669;SDS011;53568;52.164;4.472;2023-09-08T08:30:51;31.99;;;31.99;;
66669;SDS011;53568;52.164;4.472;2023-09-08T08:33:17;30.17;;;30.16;;
66669;SDS011;53568;52.164;4.472;2023-09-08T08:35:49;30.84;;;30.80;;
66669;SDS011;53568;52.164;4.472;2023-09-08T08:38:16;31.32;;;31.32;;
66669;SDS011;53568;52.164;4.472;2023-09-08T08:40:41;31.47;;;31.37;;
66669;SDS011;53568;52.164;4.472;2023-09-08T08:43:07;31.84;;;31.81;;
66669;SDS011;53568;52.164;4.472;2023-09-08T08:45:32;31.01;;;31.00;;
66669;SDS011;53568;52.164;4.472;2023-09-08T08:48:01;30.86;;;30.86;;
66669;SDS011;53568;52.164;4.472;2023-09-08T08:50:29;30.25;;;30.25;;
66669;SDS011;53568;52.164;4.472;2023-09-08T08:52:56;31.87;;;31.84;;
66669;SDS011;53568;52.164;4.472;2023-09-08T08:55:23;31.05;;;31.05;;
66669;SDS011;53568;52.164;4.472;2023-09-08T08:57:50;30.88;;;30.88;;
66669;SDS011;53568;52.164;4.472;2023-09-08T09:00:17;32.22;;;32.22;;
66669;SDS011;53568;52.164;4.472;2023-09-08T09:02:43;32.23;;;32.23;;
66669;SDS011;53568;52.164;4.472;2023-09-08T09:05:13;31.47;;;31.47;;
66669;SDS011;53568;52.164;4.472;2023-09-08T09:07:42;31.40;;;31.35;;
66669;SDS011;53568;52.164;4.472;2023-09-08T09:10:09;30.31;;;30.31;;
66669;SDS011;53568;52.164;4.472;2023-09-08T09:12:38;30.57;;;30.55;;
66669;SDS011;53568;52.164;4.472;2023-09-08T09:15:04;30.95;;;30.95;;
66669;SDS011;53568;52.164;4.472;2023-09-08T09:17:33;31.28;;;31.28;;
66669;SDS011;53568;52.164;4.472;2023-09-08T09:22:42;31.26;;;31.26;;
66669;SDS011;53568;52.164;4.472;2023-09-08T09:25:09;30.08;;;30.08;;
66669;SDS011;53568;52.164;4.472;2023-09-08T09:27:35;28.84;;;28.78;;
66669;SDS011;53568;52.164;4.472;2023-09-08T09:30:04;27.87;;;27.87;;
66669;SDS011;53568;52.164;4.472;2023-09-08T09:32:30;28.10;;;28.10;;
66669;SDS011;53568;52.164;4.472;2023-09-08T09:34:56;28.94;;;28.94;;
66669;SDS011;53568;52.164;4.472;2023-09-08T09:37:26;29.32;;;29.20;;
66669;SDS011;53568;52.164;4.472;2023-09-08T09:39:52;28.84;;;28.83;;
66669;SDS011;53568;52.164;4.472;2023-09-08T09:42:19;29.08;;;29.08;;
66669;SDS011;53568;52.164;4.472;2023-09-08T09:44:49;28.03;;;28.03;;
66669;SDS011;53568;52.164;4.472;2023-09-08T09:47:17;27.10;;;27.10;;
66669;SDS011;53568;52.164;4.472;2023-09-08T09:49:46;26.44;;;26.44;;
66669;SDS011;53568;52.164;4.472;2023-09-08T09:52:14;26.65;;;26.65;;
66669;SDS011;53568;52.164;4.472;2023-09-08T09:54:48;27.28;;;27.28;;
66669;SDS011;53568;52.164;4.472;2023-09-08T09:57:16;28.11;;;28.11;;
66669;SDS011;53568;52.164;4.472;2023-09-08T09:59:45;27.61;;;27.59;;
66669;SDS011;53568;52.164;4.472;2023-09-08T10:02:13;26.63;;;26.63;;
66669;SDS011;53568;52.164;4.472;2023-09-08T10:04:40;25.49;;;25.49;;
66669;SDS011;53568;52.164;4.472;2023-09-08T10:07:06;24.38;;;24.38;;
66669;SDS011;53568;52.164;4.472;2023-09-08T10:09:32;25.30;;;25.30;;
66669;SDS011;53568;52.164;4.472;2023-09-08T10:11:59;24.26;;;24.26;;
66669;SDS011;53568;52.164;4.472;2023-09-08T10:14:29;23.55;;;23.55;;
66669;SDS011;53568;52.164;4.472;2023-09-08T10:16:56;23.68;;;23.68;;
66669;SDS011;53568;52.164;4.472;2023-09-08T10:19:25;22.54;;;22.54;;
66669;SDS011;53568;52.164;4.472;2023-09-08T10:21:53;21.86;;;21.86;;
66669;SDS011;53568;52.164;4.472;2023-09-08T10:24:23;24.02;;;24.02;;
66669;SDS011;53568;52.164;4.472;2023-09-08T10:26:54;22.97;;;22.97;;
66669;SDS011;53568;52.164;4.472;2023-09-08T10:29:46;21.14;;;21.14;;
66669;SDS011;53568;52.164;4.472;2023-09-08T10:32:13;21.87;;;21.87;;
66669;SDS011;53568;52.164;4.472;2023-09-08T10:34:41;22.06;;;22.06;;
66669;SDS011;53568;52.164;4.472;2023-09-08T10:37:28;21.20;;;21.20;;
66669;SDS011;53568;52.164;4.472;2023-09-08T10:40:19;24.86;;;24.86;;
66669;SDS011;53568;52.164;4.472;2023-09-08T10:43:05;25.25;;;25.25;;
66669;SDS011;53568;52.164;4.472;2023-09-08T10:45:31;23.45;;;23.45;;
66669;SDS011;53568;52.164;4.472;2023-09-08T10:47:57;22.86;;;22.86;;
66669;SDS011;53568;52.164;4.472;2023-09-08T10:50:33;23.15;;;23.15;;
66669;SDS011;53568;52.164;4.472;2023-09-08T10:53:06;21.81;;;21.81;;
66669;SDS011;53568;52.164;4.472;2023-09-08T10:55:42;21.18;;;21.18;;
66669;SDS011;53568;52.164;4.472;2023-09-08T10:58:32;22.11;;;22.11;;
66669;SDS011;53568;52.164;4.472;2023-09-08T11:01:01;25.18;;;25.18;;
66669;SDS011;53568;52.164;4.472;2023-09-08T11:03:28;23.61;;;23.61;;
66669;SDS011;53568;52.164;4.472;2023-09-08T11:06:14;22.11;;;22.11;;
66669;SDS011;53568;52.164;4.472;2023-09-08T11:08:42;20.97;;;20.97;;
66669;SDS011;53568;52.164;4.472;2023-09-08T11:11:12;20.93;;;20.93;;
66669;SDS011;53568;52.164;4.472;2023-09-08T11:13:40;20.63;;;20.63;;
66669;SDS011;53568;52.164;4.472;2023-09-08T11:16:06;19.80;;;19.80;;
66669;SDS011;53568;52.164;4.472;2023-09-08T11:18:33;21.19;;;21.19;;
66669;SDS011;53568;52.164;4.472;2023-09-08T11:21:00;21.21;;;21.21;;
66669;SDS011;53568;52.164;4.472;2023-09-08T11:23:28;20.96;;;20.96;;
66669;SDS011;53568;52.164;4.472;2023-09-08T11:25:54;21.94;;;21.94;;
66669;SDS011;53568;52.164;4.472;2023-09-08T11:28:24;21.58;;;21.58;;
66669;SDS011;53568;52.164;4.472;2023-09-08T11:30:52;19.03;;;19.03;;
66669;SDS011;53568;52.164;4.472;2023-09-08T11:33:20;17.67;;;17.67;;
66669;SDS011;53568;52.164;4.472;2023-09-08T11:35:51;17.14;;;17.14;;
66669;SDS011;53568;52.164;4.472;2023-09-08T11:38:18;16.88;;;16.88;;
66669;SDS011;53568;52.164;4.472;2023-09-08T11:40:49;18.72;;;18.72;;
66669;SDS011;53568;52.164;4.472;2023-09-08T11:43:15;18.92;;;18.92;;
66669;SDS011;53568;52.164;4.472;2023-09-08T11:45:41;19.49;;;19.49;;
66669;SDS011;53568;52.164;4.472;2023-09-08T11:48:09;20.54;;;20.54;;
66669;SDS011;53568;52.164;4.472;2023-09-08T11:50:35;19.30;;;19.30;;
66669;SDS011;53568;52.164;4.472;2023-09-08T11:53:00;19.72;;;19.72;;
66669;SDS011;53568;52.164;4.472;2023-09-08T11:55:27;18.84;;;18.84;;
66669;SDS011;53568;52.164;4.472;2023-09-08T11:57:54;17.66;;;17.66;;
66669;SDS011;53568;52.164;4.472;2023-09-08T12:00:26;17.35;;;17.35;;
66669;SDS011;53568;52.164;4.472;2023-09-08T12:02:53;17.91;;;17.91;;
66669;SDS011;53568;52.164;4.472;2023-09-08T12:05:23;17.20;;;17.20;;
66669;SDS011;53568;52.164;4.472;2023-09-08T12:07:51;15.33;;;15.33;;
66669;SDS011;53568;52.164;4.472;2023-09-08T12:10:19;15.00;;;15.00;;
66669;SDS011;53568;52.164;4.472;2023-09-08T12:12:45;14.37;;;14.37;;
66669;SDS011;53568;52.164;4.472;2023-09-08T12:18:14;13.72;;;13.72;;
66669;SDS011;53568;52.164;4.472;2023-09-08T12:20:40;13.33;;;13.33;;
66669;SDS011;53568;52.164;4.472;2023-09-08T12:23:17;14.61;;;14.61;;
66669;SDS011;53568;52.164;4.472;2023-09-08T12:25:45;15.78;;;15.78;;
66669;SDS011;53568;52.164;4.472;2023-09-08T12:28:12;16.44;;;16.44;;
66669;SDS011;53568;52.164;4.472;2023-09-08T12:30:38;16.55;;;16.55;;
66669;SDS011;53568;52.164;4.472;2023-09-08T12:33:04;15.94;;;15.94;;
66669;SDS011;53568;52.164;4.472;2023-09-08T12:35:30;14.85;;;14.85;;
66669;SDS011;53568;52.164;4.472;2023-09-08T12:38:00;14.32;;;14.32;;
66669;SDS011;53568;52.164;4.472;2023-09-08T12:40:28;13.20;;;13.20;;
66669;SDS011;53568;52.164;4.472;2023-09-08T12:42:55;13.37;;;13.37;;
66669;SDS011;53568;52.164;4.472;2023-09-08T12:45:23;13.62;;;13.62;;
66669;SDS011;53568;52.164;4.472;2023-09-08T12:47:50;13.41;;;13.41;;
66669;SDS011;53568;52.164;4.472;2023-09-08T12:50:16;13.29;;;13.29;;
66669;SDS011;53568;52.164;4.472;2023-09-08T12:52:42;13.74;;;13.74;;
66669;SDS011;53568;52.164;4.472;2023-09-08T12:55:08;15.35;;;15.35;;
66669;SDS011;53568;52.164;4.472;2023-09-08T12:57:34;15.22;;;15.22;;
66669;SDS011;53568;52.164;4.472;2023-09-08T13:00:01;13.60;;;13.60;;
66669;SDS011;53568;52.164;4.472;2023-09-08T13:02:28;13.31;;;13.31;;
66669;SDS011;53568;52.164;4.472;2023-09-08T13:04:53;12.78;;;12.78;;
66669;SDS011;53568;52.164;4.472;2023-09-08T13:07:20;13.27;;;13.27;;
66669;SDS011;53568;52.164;4.472;2023-09-08T13:09:46;13.00;;;13.00;;
66669;SDS011;53568;52.164;4.472;2023-09-08T13:12:12;12.96;;;12.96;;
66669;SDS011;53568;52.164;4.472;2023-09-08T13:14:41;12.88;;;12.88;;
66669;SDS011;53568;52.164;4.472;2023-09-08T13:17:09;13.91;;;13.91;;
66669;SDS011;53568;52.164;4.472;2023-09-08T13:19:39;13.30;;;13.30;;
66669;SDS011;53568;52.164;4.472;2023-09-08T13:22:04;12.49;;;12.49;;
66669;SDS011;53568;52.164;4.472;2023-09-08T13:24:30;12.18;;;12.18;;
66669;SDS011;53568;52.164;4.472;2023-09-08T13:26:56;12.62;;;12.62;;
66669;SDS011;53568;52.164;4.472;2023-09-08T13:29:22;12.47;;;12.47;;
66669;SDS011;53568;52.164;4.472;2023-09-08T13:31:47;12.67;;;12.67;;
66669;SDS011;53568;52.164;4.472;2023-09-08T13:34:14;11.79;;;11.79;;
66669;SDS011;53568;52.164;4.472;2023-09-08T13:36:39;10.92;;;10.92;;
66669;SDS011;53568;52.164;4.472;2023-09-08T13:39:05;11.09;;;11.09;;
66669;SDS011;53568;52.164;4.472;2023-09-08T13:44:29;10.03;;;10.03;;
66669;SDS011;53568;52.164;4.472;2023-09-08T13:46:55;9.85;;;9.85;;
66669;SDS011;53568;52.164;4.472;2023-09-08T13:49:21;9.60;;;9.60;;
66669;SDS011;53568;52.164;4.472;2023-09-08T13:51:48;9.41;;;9.41;;
66669;SDS011;53568;52.164;4.472;2023-09-08T13:54:16;8.64;;;8.64;;
66669;SDS011;53568;52.164;4.472;2023-09-08T13:56:43;7.96;;;7.96;;
66669;SDS011;53568;52.164;4.472;2023-09-08T13:59:09;8.11;;;8.11;;
66669;SDS011;53568;52.164;4.472;2023-09-08T14:01:36;8.80;;;8.80;;
66669;SDS011;53568;52.164;4.472;2023-09-08T14:04:03;8.28;;;8.28;;
66669;SDS011;53568;52.164;4.472;2023-09-08T14:06:31;8.35;;;8.35;;
66669;SDS011;53568;52.164;4.472;2023-09-08T14:08:58;9.06;;;9.06;;
66669;SDS011;53568;52.164;4.472;2023-09-08T14:11:23;9.95;;;9.95;;
66669;SDS011;53568;52.164;4.472;2023-09-08T14:13:49;10.04;;;10.04;;
66669;SDS011;53568;52.164;4.472;2023-09-08T14:16:17;8.62;;;8.62;;
66669;SDS011;53568;52.164;4.472;2023-09-08T14:18:43;7.94;;;7.94;;
66669;SDS011;53568;52.164;4.472;2023-09-08T14:21:08;7.73;;;7.73;;
66669;SDS011;53568;52.164;4.472;2023-09-08T14:23:34;7.37;;;7.37;;
66669;SDS011;53568;52.164;4.472;2023-09-08T14:26:00;8.04;;;8.04;;
66669;SDS011;53568;52.164;4.472;2023-09-08T14:28:26;7.29;;;7.29;;
66669;SDS011;53568;52.164;4.472;2023-09-08T14:30:52;6.98;;;6.98;;
66669;SDS011;53568;52.164;4.472;2023-09-08T14:33:18;6.46;;;6.46;;